Map

Track Data

SID SEASON NUMBER BASIN SUBBASIN NAME ISO_TIME NATURE LAT LON WMO_WIND WMO_PRES WMO_AGENCY TRACK_TYPE DIST2LAND LANDFALL IFLAG USA_AGENCY USA_ATCF_ID USA_LAT USA_LON USA_RECORD USA_STATUS USA_WIND USA_PRES USA_SSHS USA_R34_NE USA_R34_SE USA_R34_SW USA_R34_NW USA_R50_NE USA_R50_SE USA_R50_SW USA_R50_NW USA_R64_NE USA_R64_SE USA_R64_SW USA_R64_NW USA_POCI USA_ROCI USA_RMW USA_EYE TOKYO_LAT TOKYO_LON TOKYO_GRADE TOKYO_WIND TOKYO_PRES TOKYO_R50_DIR TOKYO_R50_LONG TOKYO_R50_SHORT TOKYO_R30_DIR TOKYO_R30_LONG TOKYO_R30_SHORT TOKYO_LAND CMA_LAT CMA_LON CMA_CAT CMA_WIND CMA_PRES HKO_LAT HKO_LON HKO_CAT HKO_WIND HKO_PRES NEWDELHI_LAT NEWDELHI_LON NEWDELHI_GRADE NEWDELHI_WIND NEWDELHI_PRES NEWDELHI_CI NEWDELHI_DP NEWDELHI_POCI REUNION_LAT REUNION_LON REUNION_TYPE REUNION_WIND REUNION_PRES REUNION_TNUM REUNION_CI REUNION_RMW REUNION_R34_NE REUNION_R34_SE REUNION_R34_SW REUNION_R34_NW REUNION_R50_NE REUNION_R50_SE REUNION_R50_SW REUNION_R50_NW REUNION_R64_NE REUNION_R64_SE REUNION_R64_SW REUNION_R64_NW BOM_LAT BOM_LON BOM_TYPE BOM_WIND BOM_PRES BOM_TNUM BOM_CI BOM_RMW BOM_R34_NE BOM_R34_SE BOM_R34_SW BOM_R34_NW BOM_R50_NE BOM_R50_SE BOM_R50_SW BOM_R50_NW BOM_R64_NE BOM_R64_SE BOM_R64_SW BOM_R64_NW BOM_ROCI BOM_POCI BOM_EYE BOM_POS_METHOD BOM_PRES_METHOD NADI_LAT NADI_LON NADI_CAT NADI_WIND NADI_PRES WELLINGTON_LAT WELLINGTON_LON WELLINGTON_WIND WELLINGTON_PRES DS824_LAT DS824_LON DS824_STAGE DS824_WIND DS824_PRES TD9636_LAT TD9636_LON TD9636_STAGE TD9636_WIND TD9636_PRES TD9635_LAT TD9635_LON TD9635_WIND TD9635_PRES TD9635_ROCI NEUMANN_LAT NEUMANN_LON NEUMANN_CLASS NEUMANN_WIND NEUMANN_PRES MLC_LAT MLC_LON MLC_CLASS MLC_WIND MLC_PRES USA_GUST BOM_GUST BOM_GUST_PER REUNION_GUST REUNION_GUST_PER USA_SEAHGT USA_SEARAD_NE USA_SEARAD_SE USA_SEARAD_SW USA_SEARAD_NW STORM_SPEED STORM_DIR
1925192N21088 1925 30 NI BB NOT_NAMED 1925-07-11 00:00:00 TS 21.0000 88.1000 main 67 67 _________O____ -1 21.0000 88.1000 TC 30 6 270
1925192N21088 1925 30 NI BB NOT_NAMED 1925-07-11 03:00:00 TS 21.0001 87.7783 main 78 38 _________PO___ -1 21.0001 87.6175 TC 30 21.0000 88.1000 1 8 270
1925192N21088 1925 30 NI BB NOT_NAMED 1925-07-11 06:00:00 TS 21.0025 87.2776 main 38 0 _________OP___ -1 21.0000 87.1000 TC 30 21.0063 87.5440 1 10 270
1925192N21088 1925 30 NI BB NOT_NAMED 1925-07-11 09:00:00 TS 21.0041 86.7344 main 0 0 _________PP___ -1 21.0001 86.5350 TC 30 21.0094 87.0004 1 10 270
1925192N21088 1925 30 NI BB NOT_NAMED 1925-07-11 12:00:00 TS 21.0038 86.2408 main 0 0 _________OP___ -1 21.0000 86.0000 TC 30 21.0076 86.4815 1 9 269
1925192N21088 1925 30 NI BB NOT_NAMED 1925-07-11 15:00:00 TS 20.9961 85.7887 main 0 0 _________PO___ -1 20.9922 85.5774 TC 30 21.0000 86.0000 1 8 269
1925192N21088 1925 30 NI BB NOT_NAMED 1925-07-11 18:00:00 TS 20.9943 85.3818 main 0 0 _________OP___ -1 21.0000 85.2000 TC 30 20.9886 85.5636 1 8 271
1925192N21088 1925 30 NI BB NOT_NAMED 1925-07-11 21:00:00 TS 21.0082 84.9808 main 0 0 _________PP___ -1 21.0274 84.7999 TC 30 20.9890 85.1618 1 7 275
1925192N21088 1925 30 NI BB NOT_NAMED 1925-07-12 00:00:00 TS 21.0600 84.5895 main 0 0 _________OP___ -1 21.1000 84.4000 TC 30 21.0200 84.7791 1 7 282
1925192N21088 1925 30 NI BB NOT_NAMED 1925-07-12 03:00:00 TS 21.1600 84.2000 main 0 0 _________PO___ -1 21.2199 83.9999 TC 30 21.1000 84.4000 1 8 289
1925192N21088 1925 30 NI BB NOT_NAMED 1925-07-12 06:00:00 TS 21.3228 83.7901 main 0 0 _________OP___ -1 21.4000 83.6000 TC 30 21.2457 83.9802 1 9 296
1925192N21088 1925 30 NI BB NOT_NAMED 1925-07-12 09:00:00 TS 21.5413 83.3741 main 0 0 _________PP___ -1 21.6425 83.1851 TC 30 21.4401 83.5631 1 9 301
1925192N21088 1925 30 NI BB NOT_NAMED 1925-07-12 12:00:00 TS 21.7822 82.9822 main 0 0 _________OP___ -1 21.9000 82.8000 TC 30 21.6645 83.1645 1 8 304
1925192N21088 1925 30 NI BB NOT_NAMED 1925-07-12 15:00:00 TS 21.9999 82.6386 main 0 0 _________PO___ -1 22.0999 82.4773 TC 30 21.9000 82.8000 1 7 305
1925192N21088 1925 30 NI BB NOT_NAMED 1925-07-12 18:00:00 TS 22.2046 82.3443 main 0 0 _________OP___ -1 22.3000 82.2000 TC 30 22.1092 82.4885 1 7 310
1925192N21088 1925 30 NI BB NOT_NAMED 1925-07-12 21:00:00 TS 22.4309 82.0771 main 0 0 _________PP___ -1 22.5349 81.9424 TC 30 22.3269 82.2117 1 7 315
1925192N21088 1925 30 NI BB NOT_NAMED 1925-07-13 00:00:00 TS 22.6781 81.8271 main 0 0 _________OP___ -1 22.8000 81.7000 TC 30 22.5561 81.9541 1 7 318
1925192N21088 1925 30 NI BB NOT_NAMED 1925-07-13 03:00:00 TS 22.9500 81.5787 main 0 0 _________PO___ -1 23.0999 81.4574 TC 30 22.8000 81.7000 1 7 319
1925192N21088 1925 30 NI BB NOT_NAMED 1925-07-13 06:00:00 TS 23.2220 81.3222 main 0 0 _________OP___ -1 23.4000 81.2000 TC 30 23.0440 81.4445 1 7 317
1925192N21088 1925 30 NI BB NOT_NAMED 1925-07-13 09:00:00 TS 23.4696 81.0541 main 0 0 _________PP___ -1 23.6349 80.9221 TC 30 23.3044 81.1862 1 7 315
1925192N21088 1925 30 NI BB NOT_NAMED 1925-07-13 12:00:00 TS 23.7438 80.7549 main 0 0 _________OP___ -1 23.9000 80.6000 TC 30 23.5876 80.9099 1 9 316
1925192N21088 1925 30 NI BB NOT_NAMED 1925-07-13 15:00:00 TS 24.0925 80.4076 main 0 0 _________PO___ -1 24.2850 80.2151 TC 30 23.9000 80.6000 1 9 317
1925192N21088 1925 30 NI BB NOT_NAMED 1925-07-13 18:00:00 TS 24.4401 80.0545 main 0 0 _________OP___ -1 24.7000 79.8000 TC 30 24.2451 80.2454 1 10 316
1925192N21088 1925 30 NI BB NOT_NAMED 1925-07-13 21:00:00 TS 24.7968 79.6698 main 0 0 _________PP___ -1 25.0676 79.3952 TC 30 24.6163 79.8529 1 10 315
1925192N21088 1925 30 NI BB NOT_NAMED 1925-07-14 00:00:00 TS 25.1362 79.2892 main 0 0 _________OP___ -1 25.4000 79.0000 TC 30 25.0043 79.4338 1 9 315
1925192N21088 1925 30 NI BB NOT_NAMED 1925-07-14 03:00:00 NR 25.4000 79.0000 main 0 __________O___ -1 TC 25.4000 79.0000 1 7 315

About IBTrACS Database

This database is a web-friendly format of International Best Track Archive for Climate Stewardship (IBTrACS), a global best track data archive curated by NOAA dating back to 1842.

Updated: 2021-10-21